Time;durP1;ratioP1;P1;durP2;ratioP2;P2;SDS_P1;SDS_P2;PMS_P1;PMS_P2;Temp;Humidity;BMP_temperature;BMP_pressure;BME280_temperature;BME280_humidity;BME280_pressure;Samples;Min_cycle;Max_cycle;Signal;HPM_P1;HPM_P2
2023/08/14 00:01:42;;;;;;;6.43;5.60;;;;;;;19.34;62.30;95279.00;5057495;28;20196;-69
2023/08/14 00:04:11;;;;;;;6.05;5.45;;;;;;;19.36;61.59;95282.19;5057387;28;20196;-69
2023/08/14 00:06:40;;;;;;;6.55;5.65;;;;;;;19.35;61.47;95281.38;5057564;28;20254;-70
2023/08/14 00:09:08;;;;;;;6.53;5.93;;;;;;;19.33;60.97;95286.59;5074291;28;20196;-69
2023/08/14 00:11:36;;;;;;;5.60;5.20;;;;;;;19.33;60.85;95285.78;5057380;28;20243;-69
2023/08/14 00:14:04;;;;;;;6.15;5.63;;;;;;;19.33;61.20;95288.59;5057410;28;20204;-69
2023/08/14 00:16:32;;;;;;;5.75;5.25;;;;;;;19.33;61.46;95286.59;5074879;28;20196;-69
2023/08/14 00:19:00;;;;;;;5.88;5.38;;;;;;;19.32;61.07;95289.78;5074872;28;20201;-69
2023/08/14 00:21:30;;;;;;;5.90;5.35;;;;;;;19.31;61.23;95296.56;5075017;28;20188;-69
2023/08/14 00:23:58;;;;;;;6.32;5.70;;;;;;;19.29;60.42;95291.41;5057276;28;20196;-69
2023/08/14 00:26:25;;;;;;;6.40;5.80;;;;;;;19.30;60.82;95295.00;5057662;28;20197;-69
2023/08/14 00:28:53;;;;;;;5.68;5.28;;;;;;;19.30;60.71;95292.19;5057210;28;20254;-69
2023/08/14 00:31:22;;;;;;;6.68;5.43;;;;;;;19.28;60.42;95289.00;5074838;28;20246;-69
2023/08/14 00:33:50;;;;;;;5.75;5.25;;;;;;;19.26;60.61;95297.78;5057172;28;20197;-69
2023/08/14 00:36:18;;;;;;;5.43;5.03;;;;;;;19.24;60.64;95289.81;5074613;28;20232;-69
2023/08/14 00:38:48;;;;;;;5.57;5.18;;;;;;;19.24;60.77;95294.59;5057035;28;20221;-69
2023/08/14 00:41:17;;;;;;;5.68;5.28;;;;;;;19.21;61.32;95299.00;5056751;28;20683;-69
2023/08/14 00:43:45;;;;;;;5.22;4.80;;;;;;;19.20;61.33;95296.59;5074656;28;20553;-69
2023/08/14 00:46:13;;;;;;;5.80;5.30;;;;;;;19.19;61.12;95300.59;5074191;28;20201;-69
2023/08/14 00:48:42;;;;;;;5.50;5.00;;;;;;;19.19;61.07;95304.19;5057496;28;20197;-69
2023/08/14 00:51:10;;;;;;;5.78;5.30;;;;;;;19.19;60.39;95295.00;5074704;28;20193;-69
2023/08/14 00:53:38;;;;;;;5.78;5.13;;;;;;;19.18;60.52;95288.63;5074597;28;20211;-69
2023/08/14 00:56:07;;;;;;;6.00;5.50;;;;;;;19.19;60.72;95298.59;5074395;28;20213;-69
2023/08/14 00:58:34;;;;;;;5.60;5.15;;;;;;;19.18;60.67;95299.81;5078216;28;20228;-69
2023/08/14 01:01:03;;;;;;;5.63;5.20;;;;;;;19.17;60.17;95294.59;5060884;28;20197;-69
2023/08/14 01:03:29;;;;;;;5.45;4.95;;;;;;;19.16;60.30;95299.41;5060634;28;20208;-69
2023/08/14 01:05:58;;;;;;;6.07;5.47;;;;;;;19.15;60.10;95297.03;5078077;28;20645;-68
2023/08/14 01:08:27;;;;;;;5.57;5.18;;;;;;;19.15;59.94;95295.03;5078258;28;20189;-68
2023/08/14 01:11:00;;;;;;;5.55;5.05;;;;;;;19.10;59.92;95292.66;5077812;28;20606;-68
2023/08/14 01:13:40;;;;;;;4.80;4.50;;;;;;;19.06;60.23;95296.63;5077987;28;20189;-68
2023/08/14 01:16:14;;;;;;;5.25;4.80;;;;;;;19.04;60.10;95299.84;5077837;28;20208;-68
2023/08/14 01:18:42;;;;;;;5.22;4.78;;;;;;;19.03;60.49;95292.66;5060526;28;20241;-68
2023/08/14 01:21:43;;;;;;;5.90;5.07;;;;;;;18.96;60.28;95287.09;5060474;28;20197;-68
2023/08/14 01:24:22;;;;;;;5.88;5.38;;;;;;;18.90;60.67;95288.69;5076358;28;20215;-68
2023/08/14 01:26:55;;;;;;;5.35;4.95;;;;;;;18.85;60.37;95283.50;5077959;28;20268;-69
2023/08/14 01:29:23;;;;;;;5.65;5.20;;;;;;;18.84;60.71;95288.28;5077478;28;20605;-68
2023/08/14 01:31:53;;;;;;;5.13;4.72;;;;;;;18.80;60.41;95287.50;5059801;28;20197;-69
2023/08/14 01:34:21;;;;;;;4.82;4.53;;;;;;;18.76;61.03;95284.69;5077355;28;20659;-69
2023/08/14 01:36:57;;;;;;;5.43;4.93;;;;;;;18.75;61.17;95285.91;5077411;28;20236;-68
2023/08/14 01:39:32;;;;;;;5.00;4.50;;;;;;;18.71;61.24;95285.13;5060169;28;20201;-69
2023/08/14 01:42:12;;;;;;;5.97;5.43;;;;;;;18.70;61.78;95286.28;5059804;28;20200;-69
2023/08/14 01:44:41;;;;;;;5.15;4.80;;;;;;;18.67;61.53;95284.28;5077451;28;20235;-69
2023/08/14 01:47:13;;;;;;;5.78;5.28;;;;;;;18.60;61.87;95284.28;5077272;28;20205;-69
2023/08/14 01:49:41;;;;;;;5.25;4.80;;;;;;;18.56;62.03;95280.72;5077374;28;20566;-69
2023/08/14 01:52:09;;;;;;;5.07;4.68;;;;;;;18.55;61.97;95278.28;5059456;28;20609;-68
2023/08/14 01:54:38;;;;;;;6.07;5.40;;;;;;;18.54;61.85;95283.09;5077293;28;20197;-68
2023/08/14 01:57:08;;;;;;;5.25;4.82;;;;;;;18.52;61.65;95277.91;5077145;28;20196;-68
2023/08/14 01:59:44;;;;;;;5.50;5.07;;;;;;;18.50;61.33;95271.13;5059252;28;20209;-69
2023/08/14 02:02:13;;;;;;;5.18;4.78;;;;;;;18.47;61.96;95280.28;5077135;28;20228;-69
2023/08/14 02:04:41;;;;;;;4.72;4.43;;;;;;;18.47;62.13;95275.50;5075515;28;20209;-69
2023/08/14 02:07:10;;;;;;;4.93;4.60;;;;;;;18.44;61.72;95279.09;5076209;28;20193;-69
2023/08/14 02:09:38;;;;;;;5.32;4.82;;;;;;;18.41;61.54;95267.91;5075780;28;20595;-68
2023/08/14 02:12:08;;;;;;;5.47;4.97;;;;;;;18.41;61.68;95268.75;5059418;28;20211;-69
2023/08/14 02:14:37;;;;;;;5.40;4.90;;;;;;;18.42;61.67;95272.31;5059605;28;20204;-69
2023/08/14 02:17:05;;;;;;;5.28;4.82;;;;;;;18.41;61.36;95276.28;5059275;28;20605;-69
2023/08/14 02:19:36;;;;;;;5.20;4.80;;;;;;;18.40;61.68;95275.50;5059195;28;20208;-68
2023/08/14 02:22:06;;;;;;;5.35;4.82;;;;;;;18.41;61.47;95282.69;5076467;28;20193;-68
2023/08/14 02:24:33;;;;;;;5.60;5.20;;;;;;;18.39;61.46;95273.13;5076026;28;20295;-69
2023/08/14 02:27:00;;;;;;;6.95;5.53;;;;;;;18.37;61.34;95276.28;5059366;28;20189;-69
2023/08/14 02:29:31;;;;;;;5.88;4.80;;;;;;;18.35;61.38;95275.91;5076341;28;20500;-68
2023/08/14 02:31:59;;;;;;;5.45;5.05;;;;;;;18.32;61.32;95271.13;5076226;28;20185;-68
2023/08/14 02:34:35;;;;;;;5.18;4.75;;;;;;;18.31;61.26;95275.13;5076592;28;20189;-68
2023/08/14 02:37:03;;;;;;;5.00;4.60;;;;;;;18.29;61.42;95277.50;5054318;28;20237;-68
2023/08/14 02:39:31;;;;;;;5.55;4.97;;;;;;;18.28;61.14;95287.88;5056385;28;20210;-68
2023/08/14 02:41:59;;;;;;;5.03;4.55;;;;;;;18.25;60.85;95277.50;5055847;28;20213;-68
2023/08/14 02:44:30;;;;;;;5.32;4.82;;;;;;;18.25;61.18;95283.06;5055678;28;20578;-68
2023/08/14 02:47:03;;;;;;;5.00;4.60;;;;;;;18.26;61.13;95287.47;5055439;28;20205;-68
2023/08/14 02:49:31;;;;;;;5.32;4.82;;;;;;;18.26;61.10;95293.06;5056372;28;20181;-68
2023/08/14 02:51:59;;;;;;;5.47;4.97;;;;;;;18.26;60.81;95295.03;5055243;28;20190;-69
2023/08/14 02:54:27;;;;;;;5.60;4.72;;;;;;;18.23;60.66;95299.44;5056131;28;20204;-69
2023/08/14 02:56:58;;;;;;;5.22;4.72;;;;;;;18.21;60.67;95307.41;5055453;28;20256;-69
2023/08/14 02:59:25;;;;;;;5.10;4.60;;;;;;;18.21;60.53;95306.59;5054976;28;20226;-69
2023/08/14 03:01:56;;;;;;;5.03;4.63;;;;;;;18.19;60.72;95308.97;5054588;28;20630;-68
2023/08/14 03:04:25;;;;;;;5.60;4.70;;;;;;;18.17;60.53;95305.81;5055013;28;20194;-68
2023/08/14 03:06:53;;;;;;;4.70;4.30;;;;;;;18.14;60.79;95314.97;5055224;28;20190;-68
2023/08/14 03:09:21;;;;;;;5.13;4.72;;;;;;;18.11;60.55;95307.38;5055842;28;20186;-69
2023/08/14 03:11:49;;;;;;;5.30;4.80;;;;;;;18.11;60.76;95296.22;5055736;28;20186;-69
2023/08/14 03:14:19;;;;;;;4.85;4.45;;;;;;;18.07;60.75;95307.38;5055749;28;20198;-69
2023/08/14 03:16:47;;;;;;;5.22;4.82;;;;;;;18.03;61.24;95312.16;5054662;28;20233;-69
2023/08/14 03:19:17;;;;;;;5.78;5.28;;;;;;;18.03;61.00;95306.56;5054727;28;20573;-68
2023/08/14 03:21:52;;;;;;;5.20;4.80;;;;;;;17.99;61.03;95306.56;5054697;28;20198;-68
2023/08/14 03:24:20;;;;;;;5.50;5.05;;;;;;;17.98;61.06;95313.34;5054458;28;20288;-68
2023/08/14 03:26:52;;;;;;;5.13;4.70;;;;;;;17.97;61.14;95313.72;5054667;28;20194;-69
2023/08/14 03:29:19;;;;;;;4.88;4.47;;;;;;;18.01;61.15;95303.38;5054284;28;20197;-69
2023/08/14 03:31:48;;;;;;;5.60;4.57;;;;;;;18.00;61.15;95312.94;5055104;28;20190;-68
2023/08/14 03:34:16;;;;;;;5.07;4.68;;;;;;;18.01;60.91;95304.19;5055106;28;20204;-68
2023/08/14 03:36:43;;;;;;;5.22;4.82;;;;;;;18.00;61.14;95313.72;5064101;28;20233;-69
2023/08/14 03:39:13;;;;;;;5.57;5.05;;;;;;;17.95;61.57;95305.75;5075293;28;20209;-67
2023/08/14 03:41:41;;;;;;;5.65;5.15;;;;;;;17.92;61.63;95308.53;5057693;28;20251;-67
2023/08/14 03:44:12;;;;;;;6.80;5.10;;;;;;;17.86;61.92;95305.31;5075325;28;20181;-67
2023/08/14 03:46:43;;;;;;;6.80;5.05;;;;;;;17.82;62.25;95306.50;5074997;28;20515;-70
2023/08/14 03:49:11;;;;;;;5.88;5.30;;;;;;;17.74;62.00;95305.66;5057549;28;20235;-71
2023/08/14 03:51:41;;;;;;;6.43;5.63;;;;;;;17.68;62.57;95301.66;5057590;28;20200;-67
2023/08/14 03:54:11;;;;;;;6.60;5.30;;;;;;;17.59;62.59;95295.66;5057958;28;20276;-67
2023/08/14 03:56:42;;;;;;;5.57;4.82;;;;;;;17.54;62.82;95299.63;5057779;28;20216;-67
2023/08/14 03:59:09;;;;;;;6.53;5.57;;;;;;;17.52;63.07;95305.56;5057405;28;20232;-67
2023/08/14 04:01:37;;;;;;;5.70;5.10;;;;;;;17.53;63.40;95296.00;5075141;28;20196;-67
2023/08/14 04:04:06;;;;;;;7.18;5.57;;;;;;;17.56;63.10;95295.22;5057451;28;20196;-67
2023/08/14 04:06:36;;;;;;;5.88;5.28;;;;;;;17.57;63.07;95301.59;5057435;28;20241;-67
2023/08/14 04:09:05;;;;;;;6.88;5.45;;;;;;;17.59;63.02;95292.88;5057529;28;20201;-67
2023/08/14 04:11:33;;;;;;;6.80;5.55;;;;;;;17.60;63.39;95306.41;5074756;28;20601;-67
2023/08/14 04:14:03;;;;;;;6.25;5.65;;;;;;;17.61;63.69;95302.44;5057398;28;20197;-68
2023/08/14 04:16:43;;;;;;;7.72;5.82;;;;;;;17.61;63.42;95301.63;5057747;28;20239;-67
2023/08/14 04:19:13;;;;;;;6.38;5.78;;;;;;;17.57;63.34;95307.19;5074909;28;20216;-67
2023/08/14 04:21:44;;;;;;;7.63;6.50;;;;;;;17.60;63.75;95311.97;5074817;28;20181;-67
2023/08/14 04:24:14;;;;;;;7.43;6.72;;;;;;;17.63;63.70;95315.97;5074615;28;20197;-67
2023/08/14 04:26:44;;;;;;;7.25;6.55;;;;;;;17.64;63.86;95318.38;5074918;28;20181;-67
2023/08/14 04:29:18;;;;;;;6.15;5.47;;;;;;;17.66;63.49;95324.38;5057245;28;20197;-67
2023/08/14 04:31:46;;;;;;;6.72;6.00;;;;;;;17.70;62.90;95330.75;5075937;28;20264;-67
2023/08/14 04:34:14;;;;;;;6.53;5.65;;;;;;;17.73;62.78;95326.38;5078830;28;20193;-69
2023/08/14 04:36:40;;;;;;;5.57;5.18;;;;;;;17.75;62.55;95324.81;5058037;28;20593;-67
2023/08/14 04:39:10;;;;;;;8.35;5.82;;;;;;;17.77;62.17;95328.03;5057699;28;20218;-67
2023/08/14 04:41:39;;;;;;;5.78;5.18;;;;;;;17.84;61.64;95323.66;5057593;28;20202;-69
2023/08/14 04:44:07;;;;;;;6.20;5.18;;;;;;;17.88;61.33;95328.06;5058613;28;20193;-66
2023/08/14 04:46:44;;;;;;;5.25;4.85;;;;;;;17.94;61.49;95334.06;5058630;28;20190;-68
2023/08/14 04:49:12;;;;;;;6.80;4.82;;;;;;;17.98;61.35;95334.88;5058520;28;20182;-66
2023/08/14 04:51:40;;;;;;;8.07;5.18;;;;;;;18.04;61.49;95336.88;5057556;28;20202;-66
2023/08/14 04:54:07;;;;;;;5.43;4.90;;;;;;;18.10;61.33;95333.69;5058001;28;20212;-67
2023/08/14 04:56:35;;;;;;;5.68;5.13;;;;;;;18.14;60.87;95328.91;5058558;28;20197;-66
2023/08/14 04:59:04;;;;;;;7.85;5.70;;;;;;;18.18;61.84;95336.09;5057568;28;20250;-67
2023/08/14 05:01:34;;;;;;;6.57;4.82;;;;;;;18.20;61.25;95327.34;5057967;28;20586;-66
2023/08/14 05:04:06;;;;;;;8.10;5.32;;;;;;;18.19;60.88;95334.09;5058153;28;20186;-67
2023/08/14 05:06:37;;;;;;;6.40;4.82;;;;;;;18.17;60.99;95336.50;5057238;28;20248;-66
2023/08/14 05:09:04;;;;;;;6.15;4.82;;;;;;;18.17;61.31;95333.72;5058129;28;20272;-66
2023/08/14 05:11:35;;;;;;;6.15;4.78;;;;;;;18.19;61.10;95337.72;5058081;28;20194;-66
2023/08/14 05:14:03;;;;;;;6.38;5.25;;;;;;;18.24;61.25;95340.13;5057244;28;20201;-66
2023/08/14 05:16:33;;;;;;;5.28;4.78;;;;;;;18.28;61.49;95340.91;5057222;28;20208;-66
2023/08/14 05:19:01;;;;;;;5.47;4.80;;;;;;;18.31;61.09;95342.13;5058081;28;20218;-66
2023/08/14 05:21:36;;;;;;;5.43;4.93;;;;;;;18.35;61.31;95339.34;5057117;28;20201;-66
2023/08/14 05:24:09;;;;;;;5.03;4.63;;;;;;;18.37;60.37;95339.72;5057819;28;20193;-66
2023/08/14 05:26:36;;;;;;;5.35;4.45;;;;;;;18.41;60.96;95337.72;5058006;28;20186;-66
2023/08/14 05:29:05;;;;;;;5.43;4.93;;;;;;;18.41;61.35;95346.09;5057678;28;20178;-66
2023/08/14 05:31:34;;;;;;;5.28;4.82;;;;;;;18.46;61.36;95342.94;5056896;28;20606;-66
2023/08/14 05:34:04;;;;;;;6.72;6.05;;;;;;;18.47;60.79;95347.31;5056783;28;20198;-66
2023/08/14 05:36:37;;;;;;;7.28;6.60;;;;;;;18.52;60.69;95344.16;5056777;28;20239;-66
2023/08/14 05:39:08;;;;;;;6.65;6.03;;;;;;;18.53;60.49;95349.31;5057717;28;20278;-66
2023/08/14 05:41:35;;;;;;;6.45;5.85;;;;;;;18.59;60.12;95344.16;5056361;28;20267;-66
2023/08/14 05:44:03;;;;;;;5.90;5.40;;;;;;;18.63;59.91;95344.97;5056360;28;20189;-66
2023/08/14 05:46:31;;;;;;;6.93;6.32;;;;;;;18.68;60.16;95340.97;5057435;28;20186;-66
2023/08/14 05:48:59;;;;;;;7.10;6.53;;;;;;;18.71;60.01;95337.41;5057034;28;20213;-66
2023/08/14 05:51:26;;;;;;;6.75;6.05;;;;;;;18.78;60.59;95343.00;5057150;28;20603;-66
2023/08/14 05:53:58;;;;;;;6.55;5.97;;;;;;;18.84;60.97;95349.75;5057270;28;20182;-66
2023/08/14 05:56:26;;;;;;;6.85;6.20;;;;;;;18.87;61.75;95348.97;5056188;28;20572;-66
2023/08/14 05:58:57;;;;;;;6.50;5.90;;;;;;;18.93;61.81;95344.56;5057166;28;20205;-66
2023/08/14 06:01:26;;;;;;;5.93;5.43;;;;;;;19.00;61.59;95341.78;5057242;28;20221;-67
2023/08/14 06:03:54;;;;;;;6.07;5.57;;;;;;;19.05;61.46;95351.75;5056818;28;20288;-66
2023/08/14 06:06:25;;;;;;;5.85;5.05;;;;;;;19.02;60.55;95348.94;5057066;28;20495;-66
2023/08/14 06:08:53;;;;;;;8.63;5.68;;;;;;;19.07;62.21;95348.56;5057041;28;20198;-66
2023/08/14 06:11:25;;;;;;;6.72;5.50;;;;;;;19.08;61.20;95339.75;5056774;28;20197;-66
2023/08/14 06:13:53;;;;;;;4.90;4.53;;;;;;;19.08;61.08;95336.97;5056630;28;20182;-67
2023/08/14 06:16:19;;;;;;;5.40;4.68;;;;;;;19.16;61.14;95334.97;5056768;28;20206;-67
2023/08/14 06:18:48;;;;;;;4.93;4.55;;;;;;;19.22;61.89;95336.94;5056726;28;20213;-67
2023/08/14 06:21:15;;;;;;;5.00;4.60;;;;;;;19.23;62.21;95332.94;5056741;28;20267;-67
2023/08/14 06:23:46;;;;;;;5.72;5.05;;;;;;;19.26;61.56;95331.34;5055813;28;20227;-66
2023/08/14 06:26:14;;;;;;;5.28;4.78;;;;;;;19.29;61.84;95333.34;5056470;28;20225;-66
2023/08/14 06:28:46;;;;;;;5.55;5.00;;;;;;;19.31;61.32;95327.34;5055996;28;20201;-66
2023/08/14 06:31:13;;;;;;;5.32;4.93;;;;;;;19.41;61.13;95315.31;5055382;28;20208;-66
2023/08/14 06:33:46;;;;;;;7.07;5.95;;;;;;;19.46;60.91;95326.09;5056244;28;20259;-66
2023/08/14 06:36:16;;;;;;;5.43;4.88;;;;;;;19.57;59.67;95326.88;5060947;28;20375;-66
2023/08/14 06:38:44;;;;;;;5.53;5.03;;;;;;;19.69;59.44;95334.06;5058786;28;20235;-67
2023/08/14 06:41:14;;;;;;;4.80;4.38;;;;;;;19.84;59.39;95332.78;5076377;28;20200;-67
2023/08/14 06:43:45;;;;;;;5.40;4.93;;;;;;;19.96;58.76;95328.72;5058750;28;20220;-67
2023/08/14 06:46:14;;;;;;;5.93;4.63;;;;;;;20.10;58.21;95333.47;5058916;28;20208;-67
2023/08/14 06:48:43;;;;;;;6.85;4.95;;;;;;;20.31;56.63;95338.16;5058886;28;20204;-67
2023/08/14 06:51:09;;;;;;;4.57;4.15;;;;;;;20.45;55.32;95329.66;5058638;28;20201;-67
2023/08/14 06:53:38;;;;;;;5.00;4.60;;;;;;;20.57;54.17;95331.19;5058490;28;20197;-67
2023/08/14 06:56:08;;;;;;;4.78;4.30;;;;;;;20.70;54.89;95339.88;5075522;28;20552;-67
2023/08/14 06:58:39;;;;;;;4.72;4.13;;;;;;;20.78;53.58;95333.84;5058560;28;20291;-67
2023/08/14 07:01:12;;;;;;;4.78;4.32;;;;;;;20.92;53.27;95335.72;5058509;28;20193;-67
2023/08/14 07:03:39;;;;;;;6.43;4.50;;;;;;;20.98;52.50;95336.84;5058365;28;20204;-67
2023/08/14 07:06:10;;;;;;;4.70;4.18;;;;;;;20.95;52.83;95331.28;5074708;28;20203;-67
2023/08/14 07:08:39;;;;;;;6.40;4.13;;;;;;;20.94;52.75;95340.91;5075795;28;20197;-67
2023/08/14 07:11:11;;;;;;;4.45;4.05;;;;;;;21.01;52.70;95338.03;5058412;28;20219;-67
2023/08/14 07:13:39;;;;;;;4.97;4.57;;;;;;;21.03;52.29;95332.84;5058149;28;20209;-67
2023/08/14 07:16:11;;;;;;;5.20;4.70;;;;;;;21.04;52.08;95337.22;5058124;28;20189;-67
2023/08/14 07:18:41;;;;;;;5.28;4.30;;;;;;;21.14;51.76;95339.94;5074713;28;20205;-67
2023/08/14 07:21:10;;;;;;;5.07;4.57;;;;;;;21.21;51.17;95341.09;5075754;28;20178;-67
2023/08/14 07:23:40;;;;;;;4.25;3.85;;;;;;;21.29;50.79;95337.78;5057978;28;20205;-67
2023/08/14 07:26:29;;;;;;;4.72;4.00;;;;;;;21.30;50.97;95335.75;5075602;28;20224;-67
2023/08/14 07:28:57;;;;;;;4.20;3.80;;;;;;;21.36;50.15;95336.94;5075889;28;20177;-67
2023/08/14 07:31:34;;;;;;;4.40;4.05;;;;;;;21.44;49.88;95338.47;5075481;28;20208;-67
2023/08/14 07:34:02;;;;;;;4.45;4.05;;;;;;;21.49;50.05;95340.00;5075307;28;20249;-67
2023/08/14 07:36:29;;;;;;;4.65;3.97;;;;;;;21.49;49.41;95338.00;5058354;28;20228;-67
2023/08/14 07:38:56;;;;;;;4.78;4.07;;;;;;;21.48;49.52;95330.78;5075497;28;20190;-67
2023/08/14 07:41:26;;;;;;;3.83;3.58;;;;;;;21.53;48.79;95338.78;5075003;28;20228;-67
2023/08/14 07:43:56;;;;;;;4.40;4.05;;;;;;;21.54;49.21;95337.56;5075327;28;20239;-67
2023/08/14 07:46:23;;;;;;;3.83;3.53;;;;;;;21.57;49.07;95336.72;5075180;28;20588;-67
2023/08/14 07:48:55;;;;;;;4.68;4.28;;;;;;;21.65;48.37;95331.03;5058030;28;20190;-67
2023/08/14 07:51:27;;;;;;;5.07;4.57;;;;;;;21.69;47.99;95332.56;5057388;28;20243;-67
2023/08/14 07:53:55;;;;;;;5.13;4.60;;;;;;;21.75;48.40;95333.72;5057515;28;20200;-67
2023/08/14 07:56:22;;;;;;;4.70;4.30;;;;;;;21.79;47.95;95336.47;5057493;28;20201;-67
2023/08/14 07:58:52;;;;;;;4.18;3.88;;;;;;;21.80;48.18;95333.25;5075076;28;20185;-67
2023/08/14 08:01:22;;;;;;;4.30;3.90;;;;;;;21.88;46.46;95340.34;5075027;28;20192;-67
2023/08/14 08:03:53;;;;;;;3.45;3.15;;;;;;;21.88;46.88;95340.34;5074970;28;20197;-67
2023/08/14 08:06:24;;;;;;;3.90;3.60;;;;;;;21.96;47.09;95343.06;5074626;28;20201;-67
2023/08/14 08:08:54;;;;;;;3.92;3.47;;;;;;;21.96;46.61;95338.25;5075113;28;20196;-67
2023/08/14 08:11:24;;;;;;;4.35;3.50;;;;;;;21.97;46.52;95339.03;5075143;28;20186;-67
2023/08/14 08:13:52;;;;;;;4.30;3.90;;;;;;;21.95;47.13;95336.66;5057377;28;20232;-67
2023/08/14 08:16:19;;;;;;;4.00;3.70;;;;;;;21.97;46.91;95337.06;5075003;28;20193;-67
2023/08/14 08:18:50;;;;;;;3.65;3.35;;;;;;;21.99;46.86;95337.41;5057186;28;20193;-67
2023/08/14 08:21:16;;;;;;;4.38;3.90;;;;;;;22.06;45.56;95331.69;5057420;28;20236;-67
2023/08/14 08:23:48;;;;;;;4.07;3.60;;;;;;;22.09;45.97;95335.69;5074585;28;20192;-67
2023/08/14 08:26:16;;;;;;;4.10;3.47;;;;;;;22.19;45.97;95331.19;5074703;28;20605;-67
2023/08/14 08:28:42;;;;;;;3.92;3.50;;;;;;;22.25;46.05;95326.66;5074907;28;20247;-67
2023/08/14 08:31:09;;;;;;;4.40;4.00;;;;;;;22.33;46.08;95328.16;5074634;28;20212;-67
2023/08/14 08:33:39;;;;;;;4.43;3.67;;;;;;;22.40;45.95;95330.84;5057123;28;20201;-67
2023/08/14 08:36:07;;;;;;;5.05;3.67;;;;;;;22.43;45.71;95323.59;5074949;28;20244;-67
2023/08/14 08:38:38;;;;;;;3.67;3.38;;;;;;;22.42;45.50;95325.63;5056956;28;20538;-67
2023/08/14 08:41:10;;;;;;;5.57;4.05;;;;;;;22.43;45.00;95324.41;5057202;28;20236;-67
2023/08/14 08:43:41;;;;;;;5.65;3.95;;;;;;;22.53;45.30;95320.63;5074784;28;20173;-67
2023/08/14 08:46:13;;;;;;;5.15;3.67;;;;;;;22.57;45.22;95335.44;5056796;28;20617;-67
2023/08/14 08:48:45;;;;;;;4.90;4.22;;;;;;;22.66;44.80;95322.84;5057081;28;20193;-67
2023/08/14 08:51:15;;;;;;;4.45;4.15;;;;;;;22.81;44.67;95325.03;5074419;28;20191;-67
2023/08/14 08:53:43;;;;;;;4.43;3.90;;;;;;;22.95;43.95;95318.41;5074666;28;20181;-67
2023/08/14 08:56:15;;;;;;;4.70;4.30;;;;;;;23.03;44.62;95324.69;5057593;28;20201;-66
2023/08/14 08:58:42;;;;;;;4.38;4.00;;;;;;;23.03;43.24;95327.50;5074016;28;20270;-67
2023/08/14 09:01:11;;;;;;;4.20;3.80;;;;;;;23.08;43.54;95321.38;5074547;28;20216;-67
2023/08/14 09:03:43;;;;;;;4.40;4.00;;;;;;;23.08;43.48;95315.75;5074216;28;20208;-67
2023/08/14 09:06:12;;;;;;;3.83;3.53;;;;;;;23.16;44.41;95322.84;5074354;28;20197;-67
2023/08/14 09:08:41;;;;;;;5.03;3.90;;;;;;;23.21;43.26;95313.13;5074412;28;20243;-66
2023/08/14 09:11:09;;;;;;;7.07;3.90;;;;;;;23.30;42.94;95307.72;5073656;28;20255;-66
2023/08/14 09:13:42;;;;;;;4.80;3.78;;;;;;;23.33;42.33;95314.53;5074426;28;20197;-66
2023/08/14 09:16:14;;;;;;;4.07;3.70;;;;;;;23.39;42.86;95302.34;5056807;28;20209;-67
2023/08/14 09:18:45;;;;;;;3.97;3.67;;;;;;;23.43;42.51;95305.09;5059505;28;20250;-66
2023/08/14 09:21:15;;;;;;;7.32;3.60;;;;;;;23.44;42.19;95307.47;5077864;28;20209;-66
2023/08/14 09:23:44;;;;;;;3.60;3.30;;;;;;;23.42;42.54;95304.31;5060198;28;20201;-66
2023/08/14 09:26:12;;;;;;;4.25;3.92;;;;;;;23.42;41.83;95295.84;5060676;28;20204;-66
2023/08/14 09:28:41;;;;;;;5.25;3.67;;;;;;;23.55;41.29;95298.81;5077143;28;20243;-66
2023/08/14 09:31:13;;;;;;;4.60;3.85;;;;;;;23.57;41.10;95296.38;5077853;28;20188;-67
2023/08/14 09:33:44;;;;;;;4.70;4.30;;;;;;;23.60;40.95;95300.31;5077629;28;20236;-66
2023/08/14 09:36:16;;;;;;;4.70;4.05;;;;;;;23.63;40.82;95303.06;5060399;28;20327;-66
2023/08/14 09:38:46;;;;;;;3.92;3.63;;;;;;;23.64;41.09;95293.41;5060090;28;20205;-66
2023/08/14 09:41:14;;;;;;;4.00;3.70;;;;;;;23.70;40.03;95293.72;5059957;28;20565;-66
2023/08/14 09:43:45;;;;;;;4.07;3.72;;;;;;;23.88;39.87;95288.53;5059821;28;20197;-66
2023/08/14 09:46:12;;;;;;;3.95;3.65;;;;;;;24.09;41.13;95280.84;5059934;28;20295;-66
2023/08/14 09:48:43;;;;;;;3.90;3.47;;;;;;;24.17;41.95;95277.44;5077310;28;20555;-66
2023/08/14 09:51:11;;;;;;;4.43;3.25;;;;;;;24.18;40.62;95269.75;5060009;28;20219;-66
2023/08/14 09:53:48;;;;;;;3.40;3.20;;;;;;;24.18;39.53;95264.94;5059669;28;20196;-66
2023/08/14 09:56:19;;;;;;;5.88;3.40;;;;;;;24.19;39.39;95266.53;5059889;28;20250;-66
2023/08/14 09:58:54;;;;;;;3.85;3.55;;;;;;;24.21;38.90;95274.53;5077297;28;20191;-66
2023/08/14 10:01:25;;;;;;;3.83;3.53;;;;;;;24.17;39.67;95271.00;5077123;28;20266;-67
2023/08/14 10:03:54;;;;;;;4.00;3.50;;;;;;;24.17;39.47;95263.34;5059733;28;20215;-66
2023/08/14 10:06:27;;;;;;;4.63;3.55;;;;;;;24.21;39.41;95266.06;5059883;28;20263;-66
2023/08/14 10:09:04;;;;;;;3.78;3.47;;;;;;;24.35;39.18;95274.22;5059507;28;20223;-66
2023/08/14 10:11:35;;;;;;;3.97;3.22;;;;;;;24.47;38.63;95261.47;5076647;28;20584;-66
2023/08/14 10:14:14;;;;;;;3.65;3.45;;;;;;;24.41;38.65;95261.22;5077003;28;20189;-66
2023/08/14 10:16:45;;;;;;;3.80;3.45;;;;;;;24.54;38.41;95252.06;5077023;28;20189;-66
2023/08/14 10:19:14;;;;;;;4.35;3.72;;;;;;;24.52;38.42;95252.50;5076958;28;20174;-66
2023/08/14 10:21:44;;;;;;;3.72;3.42;;;;;;;24.42;38.81;95248.69;5059023;28;20237;-66
2023/08/14 10:24:15;;;;;;;3.50;3.20;;;;;;;24.48;38.92;95252.59;5059693;28;20205;-66
2023/08/14 10:26:44;;;;;;;4.20;3.75;;;;;;;24.69;39.24;95242.81;5059428;28;20288;-66
2023/08/14 10:29:25;;;;;;;3.85;3.55;;;;;;;24.74;38.59;95256.38;5058552;28;20538;-66
2023/08/14 10:31:52;;;;;;;4.05;3.58;;;;;;;24.63;38.69;95252.25;5076477;28;20181;-67
2023/08/14 10:34:20;;;;;;;3.72;3.42;;;;;;;24.93;39.31;95239.78;5076614;28;20186;-67
2023/08/14 10:36:50;;;;;;;3.40;3.08;;;;;;;24.99;38.34;95235.22;5055648;28;20237;-67
2023/08/14 10:39:22;;;;;;;3.38;3.08;;;;;;;24.91;38.37;95237.44;5056571;28;20248;-67
2023/08/14 10:41:52;;;;;;;4.00;3.35;;;;;;;24.81;38.47;95238.50;5056323;28;20659;-67
2023/08/14 10:44:32;;;;;;;3.78;3.47;;;;;;;24.71;38.48;95233.91;5055185;28;20280;-68
2023/08/14 10:47:08;;;;;;;3.45;3.00;;;;;;;24.68;39.50;95237.59;5055724;28;20197;-67
2023/08/14 10:49:47;;;;;;;3.92;3.60;;;;;;;24.77;38.60;95226.50;5056156;28;20217;-67
2023/08/14 10:52:15;;;;;;;3.60;3.30;;;;;;;24.80;38.56;95231.28;5056273;28;20190;-67
2023/08/14 10:54:45;;;;;;;3.83;3.42;;;;;;;24.97;38.74;95224.34;5055232;28;20256;-67
2023/08/14 10:57:13;;;;;;;4.78;3.75;;;;;;;25.05;38.80;95224.97;5055826;28;20194;-67
2023/08/14 10:59:45;;;;;;;3.75;3.45;;;;;;;25.04;38.68;95220.56;5055176;28;20251;-67
2023/08/14 11:02:16;;;;;;;3.67;3.38;;;;;;;25.04;38.74;95225.41;5055448;28;20241;-68
2023/08/14 11:05:00;;;;;;;4.00;3.58;;;;;;;25.05;38.85;95227.78;5055488;28;20268;-67
2023/08/14 11:07:32;;;;;;;3.85;3.53;;;;;;;24.95;39.30;95223.25;5069134;28;20304;-67
2023/08/14 11:10:00;;;;;;;3.90;3.60;;;;;;;24.98;39.50;95223.16;5054933;28;20197;-67
2023/08/14 11:12:27;;;;;;;4.78;3.90;;;;;;;25.14;39.75;95221.53;5055362;28;20271;-67
2023/08/14 11:14:58;;;;;;;3.95;3.55;;;;;;;25.19;39.37;95221.78;5054730;28;20202;-67
2023/08/14 11:17:26;;;;;;;3.70;3.40;;;;;;;25.32;39.19;95230.31;5055772;28;20259;-67
2023/08/14 11:19:54;;;;;;;4.00;3.60;;;;;;;25.30;38.61;95223.53;5054763;28;20213;-67
2023/08/14 11:22:22;;;;;;;4.28;3.88;;;;;;;25.31;40.00;95223.09;5055541;28;20214;-67
2023/08/14 11:24:51;;;;;;;3.95;3.60;;;;;;;25.61;39.91;95221.03;5055256;28;20201;-67
2023/08/14 11:27:19;;;;;;;4.32;3.92;;;;;;;25.67;38.92;95214.41;5054702;28;20259;-67
2023/08/14 11:29:51;;;;;;;3.90;3.58;;;;;;;25.72;39.10;95201.75;5054606;28;20254;-67
2023/08/14 11:32:20;;;;;;;3.90;3.60;;;;;;;25.73;39.41;95205.38;5055470;28;20257;-67
2023/08/14 11:34:49;;;;;;;4.20;3.50;;;;;;;25.50;39.11;95204.41;5054418;28;20205;-67
2023/08/14 11:37:19;;;;;;;3.30;3.00;;;;;;;25.21;38.86;95208.03;5068647;28;20245;-66
2023/08/14 11:39:47;;;;;;;3.80;3.50;;;;;;;25.02;39.40;95205.31;5057590;28;20189;-67
2023/08/14 11:42:18;;;;;;;3.92;3.63;;;;;;;24.90;39.40;95195.53;5056541;28;20219;-67
2023/08/14 11:44:46;;;;;;;4.68;3.90;;;;;;;24.82;39.92;95194.16;5057795;28;20204;-66
2023/08/14 11:47:14;;;;;;;3.67;3.20;;;;;;;24.80;39.93;95193.78;5074465;28;20207;-67